createdAt,value
2023-03-07T06:30:58.029Z,4.82
2023-03-07T06:33:25.458Z,7.70
2023-03-07T06:35:52.688Z,7.88
2023-03-07T06:38:19.983Z,8.32
2023-03-07T06:40:55.573Z,7.15
2023-03-07T06:43:22.876Z,7.28
2023-03-07T06:45:50.129Z,7.22
2023-03-07T06:48:18.277Z,7.47
2023-03-07T06:50:46.165Z,5.80
2023-03-07T06:53:13.766Z,7.30
2023-03-07T06:55:41.225Z,6.80
2023-03-07T06:58:08.776Z,6.85
2023-03-07T07:00:36.103Z,7.03
2023-03-07T07:03:04.976Z,7.15
2023-03-07T07:05:32.445Z,7.07
2023-03-07T07:07:59.970Z,7.22
2023-03-07T07:10:29.256Z,6.40
2023-03-07T07:12:57.240Z,7.63
2023-03-07T07:15:27.274Z,6.25
2023-03-07T07:17:55.784Z,7.53
2023-03-07T07:20:24.846Z,7.13
2023-03-07T07:22:53.364Z,7.22
2023-03-07T07:25:21.588Z,7.97
2023-03-07T07:27:49.316Z,6.53
2023-03-07T07:30:17.162Z,6.75
2023-03-07T07:32:47.319Z,6.78
2023-03-07T07:35:16.690Z,5.95
2023-03-07T07:37:45.471Z,7.85
2023-03-07T07:40:14.357Z,7.15
2023-03-07T07:42:43.869Z,6.68
2023-03-07T07:45:11.734Z,7.35
2023-03-07T07:47:39.503Z,6.43
2023-03-07T07:50:07.478Z,7.38
2023-03-07T07:52:34.986Z,5.55
2023-03-07T07:55:02.982Z,6.15
2023-03-07T07:57:32.010Z,6.53
2023-03-07T07:59:59.611Z,6.32
2023-03-07T08:02:28.833Z,6.15
2023-03-07T08:04:56.926Z,7.03
2023-03-07T08:07:24.746Z,5.97
2023-03-07T08:09:52.072Z,6.47
2023-03-07T08:12:19.272Z,5.53
2023-03-07T08:14:46.702Z,6.57
2023-03-07T08:17:14.412Z,6.43
2023-03-07T08:19:41.612Z,5.78
2023-03-07T08:22:09.452Z,5.70
2023-03-07T08:24:40.984Z,5.85
2023-03-07T08:27:09.275Z,6.43
2023-03-07T08:29:36.838Z,6.40
2023-03-07T08:32:04.943Z,6.45
2023-03-07T08:34:38.264Z,5.30
2023-03-07T08:37:11.346Z,7.60
2023-03-07T08:39:38.852Z,7.25
2023-03-07T08:42:06.991Z,6.07
2023-03-07T08:44:34.510Z,6.68
2023-03-07T08:47:02.501Z,5.80
2023-03-07T08:49:30.119Z,6.57
2023-03-07T08:51:57.795Z,5.80
2023-03-07T08:54:25.223Z,4.90
2023-03-07T08:56:52.891Z,6.43
2023-03-07T08:59:31.212Z,5.65
2023-03-07T09:01:59.780Z,4.63
2023-03-07T09:04:45.086Z,6.93
2023-03-07T09:07:18.800Z,5.75
2023-03-07T09:09:57.402Z,4.80
2023-03-07T09:12:30.673Z,4.93
2023-03-07T09:15:12.508Z,5.10
2023-03-07T09:17:42.997Z,5.30
2023-03-07T09:20:27.079Z,5.43
2023-03-07T09:23:07.706Z,5.80
2023-03-07T09:25:49.196Z,4.57
2023-03-07T09:28:25.492Z,4.25
2023-03-07T09:30:54.751Z,5.43
2023-03-07T09:33:27.350Z,5.47
2023-03-07T09:35:58.226Z,4.65
2023-03-07T09:38:28.448Z,4.88
2023-03-07T09:41:02.190Z,6.07
2023-03-07T09:43:38.782Z,4.93
2023-03-07T09:46:14.241Z,4.72
2023-03-07T09:49:15.975Z,5.70
2023-03-07T09:51:46.178Z,4.65
2023-03-07T09:54:21.065Z,4.78
2023-03-07T09:56:55.802Z,4.18
2023-03-07T09:59:46.402Z,5.03
2023-03-07T10:02:33.337Z,4.93
2023-03-07T10:05:15.163Z,5.13
2023-03-07T10:07:42.809Z,4.65
2023-03-07T10:10:45.973Z,4.18
2023-03-07T10:13:30.747Z,4.90
2023-03-07T10:16:25.100Z,5.15
2023-03-07T10:19:11.037Z,5.85
2023-03-07T10:21:49.757Z,5.72
2023-03-07T10:24:55.054Z,6.78
2023-03-07T10:27:26.937Z,5.50
2023-03-07T10:29:56.996Z,6.68
2023-03-07T10:32:44.803Z,4.72
2023-03-07T10:35:19.527Z,5.18
2023-03-07T10:37:53.970Z,3.58
2023-03-07T10:40:42.217Z,3.22
2023-03-07T10:43:28.753Z,4.47
2023-03-07T10:46:25.352Z,4.90
2023-03-07T10:49:10.871Z,4.38
2023-03-07T10:52:01.515Z,4.18
2023-03-07T10:54:37.784Z,4.90
2023-03-07T10:57:07.316Z,4.63
2023-03-07T10:59:40.261Z,5.25
2023-03-07T11:02:37.351Z,5.00
2023-03-07T11:05:32.536Z,5.05
2023-03-07T11:08:21.029Z,5.10
2023-03-07T11:10:48.892Z,5.10
2023-03-07T11:13:19.626Z,4.25
2023-03-07T11:15:50.341Z,4.18
2023-03-07T11:18:42.567Z,5.00
2023-03-07T11:21:35.904Z,4.95
2023-03-07T11:24:07.460Z,5.45
2023-03-07T11:26:40.780Z,5.22
2023-03-07T11:29:13.966Z,4.97
2023-03-07T11:31:47.732Z,4.53
2023-03-07T11:34:50.551Z,4.70
2023-03-07T11:37:29.922Z,4.85
2023-03-07T11:40:19.710Z,5.32
2023-03-07T11:42:53.299Z,4.40
2023-03-07T11:45:35.987Z,4.47
2023-03-07T11:48:37.518Z,4.38
2023-03-07T11:51:15.778Z,4.63
2023-03-07T11:53:53.865Z,4.85
2023-03-07T11:56:36.008Z,5.55
2023-03-07T11:59:26.993Z,3.83
2023-03-07T12:01:59.885Z,4.78
2023-03-07T12:04:37.356Z,3.97
2023-03-07T12:07:24.000Z,4.38
2023-03-07T12:09:54.873Z,4.20
2023-03-07T12:12:34.438Z,4.50
2023-03-07T12:15:40.158Z,3.70
2023-03-07T12:18:21.005Z,4.13
2023-03-07T12:21:03.439Z,4.18
2023-03-07T12:23:39.559Z,3.65
2023-03-07T12:26:31.072Z,4.43
2023-03-07T12:29:36.960Z,4.03
2023-03-07T12:32:12.031Z,3.95
2023-03-07T12:34:46.650Z,3.65
2023-03-07T12:37:18.381Z,4.00
2023-03-07T12:39:53.846Z,3.90
2023-03-07T12:42:59.495Z,3.78
2023-03-07T12:45:43.287Z,4.13
2023-03-07T12:48:19.630Z,3.75
2023-03-07T12:50:49.100Z,3.20
2023-03-07T12:53:37.962Z,3.35
2023-03-07T12:56:43.740Z,3.70
2023-03-07T12:59:20.872Z,3.17
2023-03-07T13:02:09.636Z,2.95
2023-03-07T13:04:41.395Z,2.88
2023-03-07T13:07:25.087Z,4.07
2023-03-07T13:10:03.579Z,3.25
2023-03-07T13:12:35.861Z,3.30
2023-03-07T13:15:08.288Z,2.70
2023-03-07T13:17:38.422Z,2.90
2023-03-07T13:20:27.557Z,4.22
2023-03-07T13:22:54.929Z,3.47
2023-03-07T13:25:36.929Z,3.78
2023-03-07T13:28:25.643Z,3.42
2023-03-07T13:31:39.775Z,3.13
2023-03-07T13:34:47.227Z,3.15
2023-03-07T13:38:00.402Z,3.80
2023-03-07T13:40:29.569Z,3.78
2023-03-07T13:42:58.323Z,5.07
2023-03-07T13:45:49.753Z,4.43
2023-03-07T13:48:20.029Z,4.68
2023-03-07T13:50:53.156Z,4.43
2023-03-07T13:53:31.861Z,3.45
2023-03-07T13:56:04.932Z,3.63
2023-03-07T14:01:04.220Z,3.78
2023-03-07T14:03:38.591Z,3.63
2023-03-07T14:06:18.322Z,4.25
2023-03-07T14:08:47.225Z,4.00
2023-03-07T14:11:38.796Z,3.45
2023-03-07T14:14:25.062Z,3.92
2023-03-07T14:17:11.076Z,3.75
2023-03-07T14:20:02.474Z,4.53
2023-03-07T14:22:49.194Z,4.68
2023-03-07T14:25:17.968Z,4.47
2023-03-07T14:27:53.866Z,4.43
2023-03-07T14:30:22.050Z,3.90
2023-03-07T14:32:49.363Z,4.25
2023-03-07T14:35:37.058Z,4.82
2023-03-07T14:38:20.403Z,5.00
2023-03-07T14:41:05.652Z,4.75
2023-03-07T14:43:52.842Z,4.20
2023-03-07T14:46:29.012Z,4.20
2023-03-07T14:49:34.901Z,4.90
2023-03-07T14:52:04.026Z,5.75
2023-03-07T14:54:33.480Z,4.78
2023-03-07T14:57:01.409Z,5.07
2023-03-07T14:59:29.688Z,4.18
2023-03-07T15:01:58.211Z,4.50
2023-03-07T15:04:29.362Z,4.50
2023-03-07T15:07:05.357Z,4.45
2023-03-07T15:09:34.400Z,4.57
2023-03-07T15:12:12.696Z,5.05
2023-03-07T15:14:52.964Z,4.82
2023-03-07T15:17:26.397Z,4.55
2023-03-07T15:20:14.351Z,5.00
2023-03-07T15:22:42.611Z,5.50
2023-03-07T15:25:25.879Z,4.63
2023-03-07T15:28:05.469Z,4.97
2023-03-07T15:30:36.996Z,4.53
2023-03-07T15:33:18.164Z,4.60
2023-03-07T15:35:47.653Z,5.60
2023-03-07T15:38:23.396Z,5.45
2023-03-07T15:40:50.708Z,5.90
2023-03-07T15:43:25.410Z,5.50
2023-03-07T15:46:05.767Z,5.53
2023-03-07T15:48:44.087Z,5.90
2023-03-07T15:51:19.323Z,5.25
2023-03-07T15:54:00.635Z,5.57
2023-03-07T15:56:36.302Z,5.10
2023-03-07T15:59:20.226Z,4.72
2023-03-07T16:01:48.744Z,5.07
2023-03-07T16:04:38.798Z,4.82
2023-03-07T16:07:07.850Z,4.50
2023-03-07T16:09:35.012Z,4.20
2023-03-07T16:12:02.224Z,4.63
2023-03-07T16:14:32.618Z,5.32
2023-03-07T16:17:03.082Z,3.80
2023-03-07T16:19:30.417Z,4.75
2023-03-07T16:21:57.606Z,4.43
2023-03-07T16:24:24.788Z,4.95
2023-03-07T16:26:51.928Z,5.03
2023-03-07T16:29:22.347Z,4.72
2023-03-07T16:31:49.963Z,6.03
2023-03-07T16:34:22.793Z,5.45
2023-03-07T16:36:50.109Z,4.28
2023-03-07T16:39:18.521Z,4.22
2023-03-07T16:41:49.247Z,4.60
2023-03-07T16:44:21.247Z,4.38
2023-03-07T16:47:13.308Z,4.90
2023-03-07T16:49:40.463Z,5.05
2023-03-07T16:52:11.316Z,4.75
2023-03-07T16:54:39.029Z,5.13
2023-03-07T16:57:10.812Z,5.10
2023-03-07T16:59:40.014Z,5.35
